Terminal Aerodrome Forecast
Issued by NWS

Home | Current Version | Previous Version | Graphics & Text | Print | Product List | Glossary On
Versions: 1 2 3 4 5 6 7 8 9 10 11 12 13 14 15 16 17 18
000
FTUS43 KBIS 250536
TAFDIK
TAF
KDIK 250536Z 2506/2606 28014G20KT P6SM BKN015
     FM251100 27013KT P6SM BKN080
     FM251400 26015G24KT P6SM FEW250=

USA.gov is the U.S. government's official web portal to all federal, state and local government web resources and services.